createdAt,value
2022-12-03T00:01:40.449Z,99410.52
2022-12-03T00:04:18.021Z,99419.61
2022-12-03T00:06:50.498Z,99413.27
2022-12-03T00:09:23.376Z,99408.48
2022-12-03T00:11:55.723Z,99411.59
2022-12-03T00:14:29.352Z,99409.09
2022-12-03T00:17:03.040Z,99416.63
2022-12-03T00:19:36.567Z,99418.19
2022-12-03T00:22:08.563Z,99417.33
2022-12-03T00:24:42.301Z,99419.89
2022-12-03T00:27:14.092Z,99420.89
2022-12-03T00:29:46.838Z,99423.75
2022-12-03T00:32:20.054Z,99419.75
2022-12-03T00:34:52.743Z,99411.33
2022-12-03T00:37:29.856Z,99416.98
2022-12-03T00:40:02.629Z,99414.23
2022-12-03T00:42:35.891Z,99408.14
2022-12-03T00:45:11.283Z,99402.88
2022-12-03T00:47:43.103Z,99407.40
2022-12-03T00:50:17.715Z,99404.51
2022-12-03T00:52:52.166Z,99401.52
2022-12-03T00:55:24.984Z,99397.52
2022-12-03T00:57:58.207Z,99396.50
2022-12-03T01:00:32.072Z,99388.47
2022-12-03T01:03:05.336Z,99391.66
2022-12-03T01:05:40.207Z,99390.52
2022-12-03T01:08:14.415Z,99384.48
2022-12-03T01:10:49.056Z,99386.23
2022-12-03T01:13:22.094Z,99392.30
2022-12-03T01:15:53.999Z,99397.09
2022-12-03T01:18:27.574Z,99396.53
2022-12-03T01:21:04.216Z,99388.42
2022-12-03T01:23:39.463Z,99391.15
2022-12-03T01:26:14.097Z,99395.48
2022-12-03T01:28:46.129Z,99392.16
2022-12-03T01:31:36.973Z,99385.17
2022-12-03T01:34:10.145Z,99390.94
2022-12-03T01:36:45.153Z,99389.94
2022-12-03T01:39:17.066Z,99385.81
2022-12-03T01:41:53.735Z,99378.79
2022-12-03T01:44:32.764Z,99382.08
2022-12-03T01:47:07.312Z,99384.72
2022-12-03T01:49:43.804Z,99380.96
2022-12-03T01:52:19.102Z,99381.41
2022-12-03T01:54:56.177Z,99386.90
2022-12-03T01:57:32.752Z,99392.93
2022-12-03T02:00:06.814Z,99384.91
2022-12-03T02:02:41.074Z,99382.64
2022-12-03T02:05:20.575Z,99381.39
2022-12-03T02:07:53.265Z,99379.55
2022-12-03T02:10:28.688Z,99378.35
2022-12-03T02:13:06.344Z,99378.19
2022-12-03T02:15:42.639Z,99374.38
2022-12-03T02:18:15.247Z,99379.95
2022-12-03T02:20:57.316Z,99373.69
2022-12-03T02:23:37.685Z,99380.28
2022-12-03T02:26:11.616Z,99389.89
2022-12-03T02:28:45.177Z,99387.53
2022-12-03T02:31:19.624Z,99393.31
2022-12-03T02:33:53.711Z,99401.04
2022-12-03T02:36:26.858Z,99395.80
2022-12-03T02:38:59.443Z,99393.60
2022-12-03T02:41:51.520Z,99395.98
2022-12-03T02:44:23.627Z,99395.80
2022-12-03T02:46:55.621Z,99388.40
2022-12-03T02:49:27.678Z,99392.27
2022-12-03T02:52:00.830Z,99390.35
2022-12-03T02:54:33.836Z,99383.92
2022-12-03T02:57:08.874Z,99381.80
2022-12-03T02:59:42.220Z,99375.52
2022-12-03T03:02:14.373Z,99372.58
2022-12-03T03:04:49.952Z,99380.36
2022-12-03T03:07:22.189Z,99385.59
2022-12-03T03:09:56.841Z,99386.66
2022-12-03T03:12:28.766Z,99383.25
2022-12-03T03:15:04.980Z,99382.77
2022-12-03T03:17:39.321Z,99386.58
2022-12-03T03:20:15.574Z,99382.79
2022-12-03T03:22:49.337Z,99378.08
2022-12-03T03:25:24.859Z,99385.58
2022-12-03T03:27:57.892Z,99384.26
2022-12-03T03:30:34.023Z,99389.66
2022-12-03T03:33:07.842Z,99385.85
2022-12-03T03:35:41.604Z,99388.94
2022-12-03T03:38:14.055Z,99387.16
2022-12-03T03:40:48.192Z,99381.95
2022-12-03T03:43:21.196Z,99382.05
2022-12-03T03:45:53.796Z,99381.08
2022-12-03T03:48:27.251Z,99378.98
2022-12-03T03:50:59.624Z,99378.41
2022-12-03T03:53:33.504Z,99377.60
2022-12-03T03:56:06.479Z,99372.23
2022-12-03T03:58:38.840Z,99381.19
2022-12-03T04:01:12.778Z,99379.88
2022-12-03T04:03:46.924Z,99375.11
2022-12-03T04:06:20.424Z,99374.23
2022-12-03T04:08:52.815Z,99369.85
2022-12-03T04:11:46.987Z,99374.37
2022-12-03T04:14:21.537Z,99376.31
2022-12-03T04:16:54.420Z,99374.54
2022-12-03T04:19:28.247Z,99375.63
2022-12-03T04:22:23.405Z,99375.16
2022-12-03T04:25:16.672Z,99382.23
2022-12-03T04:28:06.176Z,99388.77
2022-12-03T04:30:40.484Z,99385.98
2022-12-03T04:33:33.637Z,99383.31
2022-12-03T04:36:08.579Z,99383.54
2022-12-03T04:38:40.650Z,99382.90
2022-12-03T04:41:14.351Z,99381.42
2022-12-03T04:44:02.554Z,99382.46
2022-12-03T04:46:34.614Z,99382.00
2022-12-03T04:49:08.971Z,99381.66
2022-12-03T04:51:44.708Z,99382.86
2022-12-03T04:54:17.106Z,99380.59
2022-12-03T04:56:50.437Z,99385.73
2022-12-03T04:59:22.566Z,99378.09
2022-12-03T05:01:56.909Z,99371.44
2022-12-03T05:04:29.720Z,99365.33
2022-12-03T05:07:03.852Z,99365.70
2022-12-03T05:09:37.802Z,99368.01
2022-12-03T05:12:10.952Z,99368.70
2022-12-03T05:14:46.373Z,99371.30
2022-12-03T05:17:18.916Z,99369.90
2022-12-03T05:20:23.532Z,99367.27
2022-12-03T05:22:57.609Z,99369.42
2022-12-03T05:25:30.744Z,99368.98
2022-12-03T05:28:06.558Z,99362.46
2022-12-03T05:30:39.928Z,99358.34
2022-12-03T05:33:15.725Z,99363.67
2022-12-03T05:35:48.810Z,99366.49
2022-12-03T05:38:20.712Z,99360.67
2022-12-03T05:40:52.826Z,99356.75
2022-12-03T05:43:25.985Z,99360.59
2022-12-03T05:45:59.329Z,99364.86
2022-12-03T05:48:33.049Z,99361.64
2022-12-03T05:51:06.505Z,99361.40
2022-12-03T05:53:38.696Z,99360.95
2022-12-03T05:56:15.387Z,99370.86
2022-12-03T05:58:47.165Z,99379.06
2022-12-03T06:01:21.782Z,99372.05
2022-12-03T06:03:55.334Z,99368.95
2022-12-03T06:06:30.602Z,99366.06
2022-12-03T06:09:06.935Z,99372.38
2022-12-03T06:11:41.431Z,99372.41
2022-12-03T06:14:18.803Z,99373.33
2022-12-03T06:16:51.542Z,99377.81
2022-12-03T06:19:24.989Z,99384.06
2022-12-03T06:21:58.463Z,99376.08
2022-12-03T06:24:30.994Z,99377.02
2022-12-03T06:27:04.901Z,99374.02
2022-12-03T06:29:37.494Z,99381.13
2022-12-03T06:32:11.331Z,99383.51
2022-12-03T06:34:44.186Z,99382.02
2022-12-03T06:37:16.101Z,99385.48
2022-12-03T06:39:48.057Z,99387.58
2022-12-03T06:42:21.100Z,99387.36
2022-12-03T06:44:54.736Z,99391.48
2022-12-03T06:47:27.797Z,99396.33
2022-12-03T06:49:59.833Z,99405.06
2022-12-03T06:52:32.359Z,99400.08
2022-12-03T06:55:05.224Z,99401.91
2022-12-03T06:57:39.648Z,99405.18
2022-12-03T07:00:14.163Z,99408.27
2022-12-03T07:02:48.631Z,99411.10
2022-12-03T07:05:21.703Z,99412.63
2022-12-03T07:07:55.750Z,99416.46
2022-12-03T07:10:31.365Z,99414.47
2022-12-03T07:13:04.653Z,99411.56
2022-12-03T07:15:36.692Z,99407.31
2022-12-03T07:18:11.249Z,99406.26
2022-12-03T07:20:44.113Z,99405.48
2022-12-03T07:23:15.866Z,99402.78
2022-12-03T07:25:50.110Z,99405.25
2022-12-03T07:28:24.414Z,99409.46
2022-12-03T07:30:58.932Z,99409.73
2022-12-03T07:33:35.199Z,99413.44
2022-12-03T07:36:10.481Z,99413.98
2022-12-03T07:38:42.331Z,99417.98
2022-12-03T07:41:14.886Z,99417.70
2022-12-03T07:43:46.885Z,99422.09
2022-12-03T07:46:22.474Z,99418.39
2022-12-03T07:48:57.558Z,99415.46
2022-12-03T07:51:32.279Z,99413.77
2022-12-03T07:54:06.177Z,99409.92
2022-12-03T07:56:39.704Z,99414.52
2022-12-03T07:59:12.787Z,99409.57
2022-12-03T08:01:46.671Z,99402.02
2022-12-03T08:04:21.380Z,99399.91
2022-12-03T08:06:53.452Z,99401.36
2022-12-03T08:09:26.828Z,99403.67
2022-12-03T08:12:06.913Z,99404.53
2022-12-03T08:14:40.063Z,99403.20
2022-12-03T08:17:14.790Z,99406.16
2022-12-03T08:19:48.714Z,99409.48
2022-12-03T08:22:22.280Z,99400.65
2022-12-03T08:24:55.353Z,99398.38
2022-12-03T08:27:29.328Z,99398.52
2022-12-03T08:30:05.585Z,99400.70
2022-12-03T08:32:43.491Z,99402.10
2022-12-03T08:35:22.760Z,99403.32
2022-12-03T08:40:55.539Z,99398.36
2022-12-03T08:43:31.605Z,99401.31
2022-12-03T08:46:13.451Z,99403.37
2022-12-03T08:51:38.230Z,99408.63
2022-12-03T08:54:16.317Z,99411.80
2022-12-03T08:56:48.721Z,99410.83
2022-12-03T08:59:40.296Z,99414.58
2022-12-03T09:02:23.933Z,99415.55
2022-12-03T09:04:57.373Z,99416.11
2022-12-03T09:07:30.585Z,99414.29
2022-12-03T09:10:04.770Z,99412.41
2022-12-03T09:12:38.583Z,99409.25
2022-12-03T09:15:12.279Z,99412.70
2022-12-03T09:17:46.595Z,99413.86
2022-12-03T09:20:20.481Z,99416.11
2022-12-03T09:22:54.788Z,99412.83
2022-12-03T09:25:29.064Z,99408.86
2022-12-03T09:28:03.693Z,99410.45
2022-12-03T09:30:36.235Z,99410.94
2022-12-03T09:33:12.096Z,99416.98
2022-12-03T09:35:50.475Z,99413.11
2022-12-03T09:38:24.721Z,99419.92
2022-12-03T09:40:57.231Z,99418.63
2022-12-03T09:44:02.880Z,99414.86
2022-12-03T09:46:25.340Z,99416.17
2022-12-03T09:48:59.746Z,99419.09
2022-12-03T09:51:36.837Z,99415.30
2022-12-03T09:54:11.528Z,99415.20
2022-12-03T09:56:44.270Z,99415.39
2022-12-03T09:59:18.107Z,99415.96
2022-12-03T10:01:50.838Z,99408.24
2022-12-03T10:04:24.201Z,99410.93
2022-12-03T10:06:56.168Z,99412.30
2022-12-03T10:09:31.306Z,99408.41
2022-12-03T10:12:06.254Z,99405.03
2022-12-03T10:14:40.855Z,99398.61
2022-12-03T10:17:14.576Z,99398.31
2022-12-03T10:19:48.352Z,99393.96
2022-12-03T10:22:21.170Z,99392.65
2022-12-03T10:25:08.897Z,99391.60
2022-12-03T10:27:42.572Z,99396.34
2022-12-03T10:30:23.425Z,99395.80
2022-12-03T10:32:57.511Z,99385.73
2022-12-03T10:35:41.367Z,99391.69
2022-12-03T10:38:23.263Z,99385.91
2022-12-03T10:40:55.321Z,99380.17
2022-12-03T10:43:28.539Z,99376.65
2022-12-03T10:46:17.469Z,99377.48
2022-12-03T10:49:16.492Z,99378.86
2022-12-03T10:51:49.352Z,99384.28
2022-12-03T10:54:24.470Z,99378.42
2022-12-03T10:56:57.524Z,99375.89
2022-12-03T10:59:35.257Z,99368.70
2022-12-03T11:02:12.579Z,99373.77
2022-12-03T11:04:44.636Z,99375.08
2022-12-03T11:10:17.141Z,99364.95
2022-12-03T11:13:20.459Z,99362.06
2022-12-03T11:15:59.672Z,99362.95
2022-12-03T11:19:07.440Z,99366.61
2022-12-03T11:22:17.541Z,99367.63
2022-12-03T11:25:29.471Z,99364.02
2022-12-03T11:28:34.240Z,99363.90
2022-12-03T11:31:14.073Z,99364.44
2022-12-03T11:33:56.820Z,99360.67
2022-12-03T11:36:48.011Z,99355.61
2022-12-03T11:40:20.678Z,99355.53
2022-12-03T11:42:58.634Z,99361.27
2022-12-03T11:45:37.153Z,99363.09
2022-12-03T11:48:17.191Z,99360.89
2022-12-03T11:50:53.702Z,99358.98
2022-12-03T11:53:29.486Z,99351.00
2022-12-03T11:59:03.851Z,99348.01
2022-12-03T12:01:40.438Z,99340.88
2022-12-03T12:04:33.337Z,99339.27
2022-12-03T12:07:09.110Z,99330.89
2022-12-03T12:09:56.587Z,99328.16
2022-12-03T12:12:38.693Z,99328.95
2022-12-03T12:15:50.342Z,99337.33
2022-12-03T12:18:43.905Z,99341.77
2022-12-03T12:21:48.638Z,99340.95
2022-12-03T12:24:47.205Z,99337.63
2022-12-03T12:27:23.003Z,99334.45
2022-12-03T12:29:58.134Z,99332.34
2022-12-03T12:32:31.841Z,99329.83
2022-12-03T12:35:17.000Z,99332.81
2022-12-03T12:38:00.113Z,99326.94
2022-12-03T12:40:55.107Z,99317.99
2022-12-03T12:43:32.378Z,99317.81
2022-12-03T12:46:46.831Z,99317.49
2022-12-03T12:49:14.398Z,99320.92
2022-12-03T12:51:49.853Z,99315.56
2022-12-03T12:54:21.971Z,99310.48
2022-12-03T12:56:55.091Z,99307.90
2022-12-03T12:59:28.674Z,99310.02
2022-12-03T13:02:04.547Z,99309.77
2022-12-03T13:04:41.470Z,99308.95
2022-12-03T13:10:23.334Z,99319.23
2022-12-03T13:12:56.514Z,99320.81
2022-12-03T13:15:43.361Z,99322.11
2022-12-03T13:18:29.400Z,99323.52
2022-12-03T13:21:15.241Z,99324.71
2022-12-03T13:23:50.040Z,99324.54
2022-12-03T13:29:18.980Z,99322.43
2022-12-03T13:31:54.096Z,99324.95
2022-12-03T13:34:30.476Z,99325.67
2022-12-03T13:37:09.338Z,99326.87
2022-12-03T13:39:47.700Z,99326.58
2022-12-03T13:42:44.020Z,99333.76
2022-12-03T13:45:39.444Z,99327.88
2022-12-03T13:48:23.525Z,99328.15
2022-12-03T13:50:59.145Z,99327.51
2022-12-03T13:53:36.858Z,99325.13
2022-12-03T13:56:21.663Z,99325.94
2022-12-03T13:58:55.461Z,99321.94
2022-12-03T14:01:46.681Z,99320.54
2022-12-03T14:04:22.675Z,99320.66
2022-12-03T14:06:56.719Z,99319.16
2022-12-03T14:09:32.469Z,99319.52
2022-12-03T14:12:25.086Z,99321.63
2022-12-03T14:14:59.306Z,99319.47
2022-12-03T14:17:32.304Z,99318.30
2022-12-03T14:20:04.929Z,99314.79
2022-12-03T14:22:38.200Z,99318.00
2022-12-03T14:25:12.660Z,99309.17
2022-12-03T14:27:45.740Z,99309.61
2022-12-03T14:30:19.438Z,99305.73
2022-12-03T14:32:52.591Z,99303.00
2022-12-03T14:35:24.530Z,99300.80
2022-12-03T14:37:57.720Z,99308.09
2022-12-03T14:40:30.983Z,99311.38
2022-12-03T14:43:06.016Z,99312.90
2022-12-03T14:45:44.311Z,99320.65
2022-12-03T14:48:17.154Z,99319.17
2022-12-03T14:50:49.708Z,99318.66
2022-12-03T14:53:32.130Z,99319.80
2022-12-03T14:56:10.117Z,99324.01
2022-12-03T14:58:42.881Z,99327.39
2022-12-03T15:01:16.834Z,99323.73
2022-12-03T15:03:49.340Z,99329.17
2022-12-03T15:06:22.083Z,99334.38
2022-12-03T15:08:55.298Z,99335.05
2022-12-03T15:11:32.457Z,99332.84
2022-12-03T15:14:07.592Z,99324.04
2022-12-03T15:16:41.382Z,99327.67
2022-12-03T15:22:08.173Z,99326.93
2022-12-03T15:24:40.804Z,99330.42
2022-12-03T15:27:18.748Z,99334.88
2022-12-03T15:29:53.727Z,99334.59
2022-12-03T15:35:19.716Z,99335.21
2022-12-03T15:37:52.385Z,99336.82
2022-12-03T15:40:27.055Z,99335.29
2022-12-03T15:43:00.956Z,99337.33
2022-12-03T15:45:33.218Z,99338.41
2022-12-03T15:48:06.609Z,99336.58
2022-12-03T15:50:40.414Z,99338.48
2022-12-03T15:53:15.196Z,99333.85
2022-12-03T15:55:50.848Z,99329.16
2022-12-03T15:58:24.411Z,99329.81
2022-12-03T16:00:57.369Z,99327.38
2022-12-03T16:03:41.517Z,99333.80
2022-12-03T16:06:18.235Z,99340.61
2022-12-03T16:08:50.600Z,99333.73
2022-12-03T16:11:23.979Z,99336.48
2022-12-03T16:13:57.211Z,99341.95
2022-12-03T16:16:33.785Z,99347.97
2022-12-03T16:19:14.252Z,99338.92
2022-12-03T16:21:47.984Z,99333.84
2022-12-03T16:24:22.226Z,99335.16
2022-12-03T16:26:55.624Z,99331.97
2022-12-03T16:29:29.668Z,99333.61
2022-12-03T16:32:04.060Z,99326.14
2022-12-03T16:34:36.794Z,99323.23
2022-12-03T16:37:13.312Z,99323.85
2022-12-03T16:39:49.483Z,99319.98
2022-12-03T16:42:23.939Z,99324.98
2022-12-03T16:45:22.942Z,99328.03
2022-12-03T16:47:55.898Z,99319.39
2022-12-03T16:50:30.851Z,99318.67
2022-12-03T16:53:06.656Z,99319.36
2022-12-03T16:55:39.658Z,99317.67
2022-12-03T16:58:14.133Z,99319.53
2022-12-03T17:00:48.633Z,99314.34
2022-12-03T17:03:22.637Z,99320.14
2022-12-03T17:05:54.936Z,99317.77
2022-12-03T17:08:30.113Z,99313.05
2022-12-03T17:11:04.022Z,99314.64
2022-12-03T17:13:37.960Z,99314.66
2022-12-03T17:16:10.248Z,99315.54
2022-12-03T17:18:43.389Z,99312.39
2022-12-03T17:21:17.042Z,99312.11
2022-12-03T17:23:51.672Z,99313.65
2022-12-03T17:26:24.460Z,99310.36
2022-12-03T17:28:56.266Z,99307.98
2022-12-03T17:31:28.907Z,99302.86
2022-12-03T17:34:01.553Z,99305.70
2022-12-03T17:36:33.848Z,99295.66
2022-12-03T17:39:07.815Z,99296.30
2022-12-03T17:41:40.547Z,99293.16
2022-12-03T17:44:19.270Z,99291.51
2022-12-03T17:46:53.947Z,99290.41
2022-12-03T17:49:31.558Z,99292.58
2022-12-03T17:52:07.586Z,99293.77
2022-12-03T17:55:08.997Z,99287.64
2022-12-03T17:57:36.669Z,99284.05
2022-12-03T18:00:13.034Z,99286.56
2022-12-03T18:02:46.703Z,99282.40
2022-12-03T18:05:20.277Z,99286.41
2022-12-03T18:07:57.950Z,99289.66
2022-12-03T18:10:30.883Z,99291.69
2022-12-03T18:13:05.762Z,99290.30
2022-12-03T18:15:37.824Z,99290.84
2022-12-03T18:18:10.396Z,99282.59
2022-12-03T18:20:43.314Z,99281.20
2022-12-03T18:23:17.155Z,99274.14
2022-12-03T18:25:50.866Z,99275.20
2022-12-03T18:28:27.431Z,99268.98
2022-12-03T18:31:00.849Z,99269.27
2022-12-03T18:33:34.086Z,99268.93
2022-12-03T18:36:14.897Z,99267.55
2022-12-03T18:38:52.254Z,99267.81
2022-12-03T18:41:27.997Z,99269.10
2022-12-03T18:44:01.042Z,99272.30
2022-12-03T18:49:28.163Z,99263.73
2022-12-03T18:52:01.594Z,99264.20
2022-12-03T18:54:35.808Z,99264.06
2022-12-03T18:57:11.971Z,99258.31
2022-12-03T18:59:45.021Z,99260.13
2022-12-03T19:05:15.775Z,99257.19
2022-12-03T19:07:51.778Z,99257.55
2022-12-03T19:10:26.205Z,99258.20
2022-12-03T19:12:58.859Z,99259.49
2022-12-03T19:15:35.105Z,99260.80
2022-12-03T19:18:09.595Z,99262.32
2022-12-03T19:20:43.937Z,99265.30
2022-12-03T19:23:18.974Z,99263.01
2022-12-03T19:26:01.324Z,99266.48
2022-12-03T19:28:34.178Z,99263.61
2022-12-03T19:31:08.241Z,99266.81
2022-12-03T19:33:42.776Z,99265.58
2022-12-03T19:36:23.092Z,99266.58
2022-12-03T19:39:00.378Z,99268.20
2022-12-03T19:41:33.977Z,99268.29
2022-12-03T19:44:10.854Z,99268.45
2022-12-03T19:46:44.232Z,99262.22
2022-12-03T19:49:21.442Z,99266.70
2022-12-03T19:51:54.156Z,99266.90
2022-12-03T19:54:28.800Z,99264.14
2022-12-03T19:57:01.619Z,99266.74
2022-12-03T19:59:34.016Z,99272.56
2022-12-03T20:02:07.380Z,99270.34
2022-12-03T20:04:41.620Z,99268.23
2022-12-03T20:07:15.812Z,99271.79
2022-12-03T20:09:48.254Z,99271.05
2022-12-03T20:12:21.492Z,99271.55
2022-12-03T20:14:53.638Z,99274.10
2022-12-03T20:17:26.827Z,99262.31
2022-12-03T20:19:59.571Z,99262.83
2022-12-03T20:22:35.758Z,99256.77
2022-12-03T20:25:10.048Z,99257.95
2022-12-03T20:27:42.895Z,99252.81
2022-12-03T20:30:16.692Z,99260.88
2022-12-03T20:32:49.725Z,99258.66
2022-12-03T20:35:22.820Z,99256.83
2022-12-03T20:37:56.287Z,99256.63
2022-12-03T20:40:28.899Z,99260.77
2022-12-03T20:43:02.696Z,99251.67
2022-12-03T20:45:37.499Z,99251.84
2022-12-03T20:48:11.534Z,99251.38
2022-12-03T20:50:45.954Z,99251.16
2022-12-03T20:53:25.525Z,99254.65
2022-12-03T20:56:00.239Z,99253.68
2022-12-03T20:58:35.490Z,99254.63
2022-12-03T21:01:17.299Z,99256.27
2022-12-03T21:03:50.971Z,99247.36
2022-12-03T21:06:24.310Z,99250.36
2022-12-03T21:08:58.365Z,99248.44
2022-12-03T21:11:37.806Z,99248.34
2022-12-03T21:14:13.031Z,99251.42
2022-12-03T21:19:42.185Z,99257.48
2022-12-03T21:22:15.951Z,99257.33
2022-12-03T21:24:49.323Z,99259.80
2022-12-03T21:27:23.886Z,99257.48
2022-12-03T21:29:57.984Z,99257.52
2022-12-03T21:32:30.635Z,99260.16
2022-12-03T21:35:07.055Z,99261.89
2022-12-03T21:37:41.021Z,99256.77
2022-12-03T21:40:16.857Z,99257.14
2022-12-03T21:42:50.723Z,99259.16
2022-12-03T21:45:25.410Z,99263.40
2022-12-03T21:47:57.675Z,99266.23
2022-12-03T21:50:32.817Z,99261.30
2022-12-03T21:53:07.500Z,99259.89
2022-12-03T21:55:45.130Z,99265.25
2022-12-03T21:58:19.028Z,99261.33
2022-12-03T22:00:52.040Z,99256.69
2022-12-03T22:03:27.371Z,99249.98
2022-12-03T22:06:00.560Z,99249.25
2022-12-03T22:08:34.251Z,99246.00
2022-12-03T22:11:12.989Z,99246.46
2022-12-03T22:13:46.763Z,99250.33
2022-12-03T22:16:22.947Z,99249.29
2022-12-03T22:18:58.402Z,99249.80
2022-12-03T22:21:33.127Z,99245.66
2022-12-03T22:24:11.210Z,99243.43
2022-12-03T22:26:50.254Z,99238.63
2022-12-03T22:29:36.046Z,99238.94
2022-12-03T22:32:12.011Z,99242.29
2022-12-03T22:34:49.685Z,99240.11
2022-12-03T22:37:25.777Z,99240.63
2022-12-03T22:40:00.825Z,99236.50
2022-12-03T22:42:34.862Z,99228.62
2022-12-03T22:45:20.984Z,99225.53
2022-12-03T22:48:02.388Z,99227.14
2022-12-03T22:50:37.876Z,99226.67
2022-12-03T22:53:14.625Z,99229.17
2022-12-03T22:56:01.199Z,99234.02
2022-12-03T22:58:35.869Z,99236.36
2022-12-03T23:01:10.794Z,99231.22
2022-12-03T23:03:51.727Z,99223.29
2022-12-03T23:06:25.901Z,99222.45
2022-12-03T23:09:00.382Z,99219.86
2022-12-03T23:11:38.706Z,99217.70
2022-12-03T23:14:13.150Z,99216.80
2022-12-03T23:16:49.181Z,99213.30
2022-12-03T23:19:25.551Z,99214.89
2022-12-03T23:22:01.726Z,99210.90
2022-12-03T23:24:35.741Z,99208.52
2022-12-03T23:27:09.502Z,99216.16
2022-12-03T23:29:43.721Z,99219.05
2022-12-03T23:32:15.935Z,99208.76
2022-12-03T23:34:47.825Z,99216.14
2022-12-03T23:37:21.182Z,99209.71
2022-12-03T23:39:53.401Z,99209.38
2022-12-03T23:42:26.158Z,99205.04
2022-12-03T23:45:00.463Z,99198.83
2022-12-03T23:47:34.169Z,99197.59
2022-12-03T23:50:07.210Z,99196.77
2022-12-03T23:52:40.136Z,99195.17
2022-12-03T23:55:13.435Z,99192.98
2022-12-03T23:57:46.016Z,99191.05
